sensor_id;sensor_type;location;lat;lon;timestamp;temperature;humidity
52889;DHT22;41413;52.770;6.892;2023-12-20T00:02:11;5.40;99.90
52889;DHT22;41413;52.770;6.892;2023-12-20T00:04:37;5.50;99.90
52889;DHT22;41413;52.770;6.892;2023-12-20T00:07:04;5.50;99.90
52889;DHT22;41413;52.770;6.892;2023-12-20T00:09:31;5.40;99.90
52889;DHT22;41413;52.770;6.892;2023-12-20T00:11:58;5.40;99.90
52889;DHT22;41413;52.770;6.892;2023-12-20T00:14:25;5.50;99.90
52889;DHT22;41413;52.770;6.892;2023-12-20T00:16:51;5.50;99.90
52889;DHT22;41413;52.770;6.892;2023-12-20T00:19:18;5.50;99.90
52889;DHT22;41413;52.770;6.892;2023-12-20T00:21:45;5.50;99.90
52889;DHT22;41413;52.770;6.892;2023-12-20T00:24:12;5.50;99.90
52889;DHT22;41413;52.770;6.892;2023-12-20T00:26:39;5.50;99.90
52889;DHT22;41413;52.770;6.892;2023-12-20T00:29:06;5.50;99.90
52889;DHT22;41413;52.770;6.892;2023-12-20T00:31:32;5.40;99.90
52889;DHT22;41413;52.770;6.892;2023-12-20T00:33:59;5.40;99.90
52889;DHT22;41413;52.770;6.892;2023-12-20T00:36:26;5.40;99.90
52889;DHT22;41413;52.770;6.892;2023-12-20T00:38:53;5.30;99.90
52889;DHT22;41413;52.770;6.892;2023-12-20T00:41:20;5.30;99.90
52889;DHT22;41413;52.770;6.892;2023-12-20T00:43:47;5.30;99.90
52889;DHT22;41413;52.770;6.892;2023-12-20T00:46:13;5.20;99.90
52889;DHT22;41413;52.770;6.892;2023-12-20T00:48:40;5.20;99.90
52889;DHT22;41413;52.770;6.892;2023-12-20T00:51:08;5.20;99.90
52889;DHT22;41413;52.770;6.892;2023-12-20T00:53:35;5.10;99.90
52889;DHT22;41413;52.770;6.892;2023-12-20T00:56:02;5.10;99.90
52889;DHT22;41413;52.770;6.892;2023-12-20T00:58:29;5.10;99.90
52889;DHT22;41413;52.770;6.892;2023-12-20T01:00:56;5.20;99.90
52889;DHT22;41413;52.770;6.892;2023-12-20T01:03:24;5.20;99.90
52889;DHT22;41413;52.770;6.892;2023-12-20T01:05:51;5.20;99.90
52889;DHT22;41413;52.770;6.892;2023-12-20T01:08:18;5.20;99.90
52889;DHT22;41413;52.770;6.892;2023-12-20T01:10:45;5.20;99.90
52889;DHT22;41413;52.770;6.892;2023-12-20T01:13:13;5.20;99.90
52889;DHT22;41413;52.770;6.892;2023-12-20T01:15:40;5.20;99.90
52889;DHT22;41413;52.770;6.892;2023-12-20T01:18:07;5.10;99.90
52889;DHT22;41413;52.770;6.892;2023-12-20T01:20:33;5.10;99.90
52889;DHT22;41413;52.770;6.892;2023-12-20T01:23:00;5.10;99.90
52889;DHT22;41413;52.770;6.892;2023-12-20T01:25:27;5.10;99.90
52889;DHT22;41413;52.770;6.892;2023-12-20T01:27:54;5.10;99.90
52889;DHT22;41413;52.770;6.892;2023-12-20T01:30:20;5.10;99.90
52889;DHT22;41413;52.770;6.892;2023-12-20T01:32:47;5.10;99.90
52889;DHT22;41413;52.770;6.892;2023-12-20T01:35:14;5.10;99.90
52889;DHT22;41413;52.770;6.892;2023-12-20T01:37:41;5.10;99.90
52889;DHT22;41413;52.770;6.892;2023-12-20T01:40:09;5.10;99.90
52889;DHT22;41413;52.770;6.892;2023-12-20T01:42:36;5.10;99.90
52889;DHT22;41413;52.770;6.892;2023-12-20T01:45:03;5.10;99.90
52889;DHT22;41413;52.770;6.892;2023-12-20T01:47:30;5.10;99.90
52889;DHT22;41413;52.770;6.892;2023-12-20T01:49:57;5.10;99.90
52889;DHT22;41413;52.770;6.892;2023-12-20T01:52:25;5.10;99.90
52889;DHT22;41413;52.770;6.892;2023-12-20T01:54:53;5.10;99.90
52889;DHT22;41413;52.770;6.892;2023-12-20T01:57:21;5.10;99.90
52889;DHT22;41413;52.770;6.892;2023-12-20T01:59:48;5.10;99.90
52889;DHT22;41413;52.770;6.892;2023-12-20T02:02:15;5.10;99.90
52889;DHT22;41413;52.770;6.892;2023-12-20T02:04:41;5.10;99.90
52889;DHT22;41413;52.770;6.892;2023-12-20T02:07:08;5.20;99.90
52889;DHT22;41413;52.770;6.892;2023-12-20T02:09:36;5.20;99.90
52889;DHT22;41413;52.770;6.892;2023-12-20T02:12:05;5.20;99.90
52889;DHT22;41413;52.770;6.892;2023-12-20T02:14:32;5.20;99.90
52889;DHT22;41413;52.770;6.892;2023-12-20T02:16:59;5.20;99.90
52889;DHT22;41413;52.770;6.892;2023-12-20T02:19:25;5.10;99.90
52889;DHT22;41413;52.770;6.892;2023-12-20T02:22:10;5.10;99.90
52889;DHT22;41413;52.770;6.892;2023-12-20T02:24:38;5.10;99.90
52889;DHT22;41413;52.770;6.892;2023-12-20T02:27:06;5.20;99.90
52889;DHT22;41413;52.770;6.892;2023-12-20T02:29:34;5.20;99.90
52889;DHT22;41413;52.770;6.892;2023-12-20T02:32:01;5.30;99.90
52889;DHT22;41413;52.770;6.892;2023-12-20T02:34:27;5.30;99.90
52889;DHT22;41413;52.770;6.892;2023-12-20T02:36:54;5.30;99.90
52889;DHT22;41413;52.770;6.892;2023-12-20T02:39:22;5.30;99.90
52889;DHT22;41413;52.770;6.892;2023-12-20T02:41:49;5.40;99.90
52889;DHT22;41413;52.770;6.892;2023-12-20T02:44:15;5.40;99.90
52889;DHT22;41413;52.770;6.892;2023-12-20T02:46:42;5.40;99.90
52889;DHT22;41413;52.770;6.892;2023-12-20T02:49:09;5.40;99.90
52889;DHT22;41413;52.770;6.892;2023-12-20T02:51:36;5.30;99.90
52889;DHT22;41413;52.770;6.892;2023-12-20T02:54:05;5.30;99.90
52889;DHT22;41413;52.770;6.892;2023-12-20T02:56:34;5.30;99.90
52889;DHT22;41413;52.770;6.892;2023-12-20T02:59:01;5.30;99.90
52889;DHT22;41413;52.770;6.892;2023-12-20T03:01:29;5.40;99.90
52889;DHT22;41413;52.770;6.892;2023-12-20T03:03:56;5.40;99.90
52889;DHT22;41413;52.770;6.892;2023-12-20T03:06:23;5.40;99.90
52889;DHT22;41413;52.770;6.892;2023-12-20T03:08:51;5.40;99.90
52889;DHT22;41413;52.770;6.892;2023-12-20T03:11:18;5.50;99.90
52889;DHT22;41413;52.770;6.892;2023-12-20T03:13:44;5.50;99.90
52889;DHT22;41413;52.770;6.892;2023-12-20T03:16:12;5.50;99.90
52889;DHT22;41413;52.770;6.892;2023-12-20T03:18:40;5.60;99.90
52889;DHT22;41413;52.770;6.892;2023-12-20T03:21:07;5.60;99.90
52889;DHT22;41413;52.770;6.892;2023-12-20T03:23:33;5.60;99.90
52889;DHT22;41413;52.770;6.892;2023-12-20T03:26:00;5.60;99.90
52889;DHT22;41413;52.770;6.892;2023-12-20T03:28:27;5.60;99.90
52889;DHT22;41413;52.770;6.892;2023-12-20T03:30:54;5.60;99.90
52889;DHT22;41413;52.770;6.892;2023-12-20T03:33:21;5.60;99.90
52889;DHT22;41413;52.770;6.892;2023-12-20T03:35:48;5.60;99.90
52889;DHT22;41413;52.770;6.892;2023-12-20T03:38:15;5.60;99.90
52889;DHT22;41413;52.770;6.892;2023-12-20T03:40:42;5.60;99.90
52889;DHT22;41413;52.770;6.892;2023-12-20T03:43:08;5.60;99.90
52889;DHT22;41413;52.770;6.892;2023-12-20T03:45:35;5.60;99.90
52889;DHT22;41413;52.770;6.892;2023-12-20T03:48:02;5.60;99.90
52889;DHT22;41413;52.770;6.892;2023-12-20T03:50:29;5.50;99.90
52889;DHT22;41413;52.770;6.892;2023-12-20T03:52:56;5.50;99.90
52889;DHT22;41413;52.770;6.892;2023-12-20T03:55:22;5.50;99.90
52889;DHT22;41413;52.770;6.892;2023-12-20T03:57:49;5.50;99.90
52889;DHT22;41413;52.770;6.892;2023-12-20T04:00:16;5.40;99.90
52889;DHT22;41413;52.770;6.892;2023-12-20T04:02:43;5.40;99.90
52889;DHT22;41413;52.770;6.892;2023-12-20T04:05:10;5.90;99.90
52889;DHT22;41413;52.770;6.892;2023-12-20T04:07:37;5.40;99.90
52889;DHT22;41413;52.770;6.892;2023-12-20T04:10:05;5.40;99.90
52889;DHT22;41413;52.770;6.892;2023-12-20T04:12:32;5.40;99.90
52889;DHT22;41413;52.770;6.892;2023-12-20T04:14:59;5.50;99.90
52889;DHT22;41413;52.770;6.892;2023-12-20T04:17:26;5.50;99.90
52889;DHT22;41413;52.770;6.892;2023-12-20T04:19:53;5.60;99.90
52889;DHT22;41413;52.770;6.892;2023-12-20T04:22:20;5.60;99.90
52889;DHT22;41413;52.770;6.892;2023-12-20T04:24:47;5.60;99.90
52889;DHT22;41413;52.770;6.892;2023-12-20T04:27:14;5.60;99.90
52889;DHT22;41413;52.770;6.892;2023-12-20T04:29:40;5.60;99.90
52889;DHT22;41413;52.770;6.892;2023-12-20T04:32:07;5.60;99.90
52889;DHT22;41413;52.770;6.892;2023-12-20T04:34:34;5.60;99.90
52889;DHT22;41413;52.770;6.892;2023-12-20T04:37:01;5.60;99.90
52889;DHT22;41413;52.770;6.892;2023-12-20T04:39:28;5.60;99.90
52889;DHT22;41413;52.770;6.892;2023-12-20T04:41:55;5.70;99.90
52889;DHT22;41413;52.770;6.892;2023-12-20T04:44:22;5.70;99.90
52889;DHT22;41413;52.770;6.892;2023-12-20T04:46:49;5.70;99.90
52889;DHT22;41413;52.770;6.892;2023-12-20T04:49:15;5.80;99.90
52889;DHT22;41413;52.770;6.892;2023-12-20T04:51:42;5.80;99.90
52889;DHT22;41413;52.770;6.892;2023-12-20T04:54:09;5.80;99.90
52889;DHT22;41413;52.770;6.892;2023-12-20T04:56:37;5.90;99.90
52889;DHT22;41413;52.770;6.892;2023-12-20T04:59:03;5.80;99.90
52889;DHT22;41413;52.770;6.892;2023-12-20T05:01:30;5.80;99.90
52889;DHT22;41413;52.770;6.892;2023-12-20T05:03:57;5.80;99.90
52889;DHT22;41413;52.770;6.892;2023-12-20T05:06:24;5.90;99.90
52889;DHT22;41413;52.770;6.892;2023-12-20T05:08:51;5.90;99.90
52889;DHT22;41413;52.770;6.892;2023-12-20T05:11:18;5.90;99.90
52889;DHT22;41413;52.770;6.892;2023-12-20T05:13:44;5.90;99.90
52889;DHT22;41413;52.770;6.892;2023-12-20T05:16:16;5.90;99.90
52889;DHT22;41413;52.770;6.892;2023-12-20T05:18:47;5.90;99.90
52889;DHT22;41413;52.770;6.892;2023-12-20T05:21:14;6.00;99.90
52889;DHT22;41413;52.770;6.892;2023-12-20T05:23:41;6.00;99.90
52889;DHT22;41413;52.770;6.892;2023-12-20T05:26:07;6.00;99.90
52889;DHT22;41413;52.770;6.892;2023-12-20T05:28:34;6.00;99.90
52889;DHT22;41413;52.770;6.892;2023-12-20T05:31:01;6.00;99.90
52889;DHT22;41413;52.770;6.892;2023-12-20T05:33:28;6.00;99.90
52889;DHT22;41413;52.770;6.892;2023-12-20T05:35:55;6.10;99.90
52889;DHT22;41413;52.770;6.892;2023-12-20T05:38:22;6.10;99.90
52889;DHT22;41413;52.770;6.892;2023-12-20T05:40:48;6.10;99.90
52889;DHT22;41413;52.770;6.892;2023-12-20T05:43:15;6.10;99.90
52889;DHT22;41413;52.770;6.892;2023-12-20T05:45:42;6.10;99.90
52889;DHT22;41413;52.770;6.892;2023-12-20T05:48:09;6.10;99.90
52889;DHT22;41413;52.770;6.892;2023-12-20T05:50:36;6.10;99.90
52889;DHT22;41413;52.770;6.892;2023-12-20T05:53:03;6.20;99.90
52889;DHT22;41413;52.770;6.892;2023-12-20T05:55:30;6.20;99.90
52889;DHT22;41413;52.770;6.892;2023-12-20T05:57:56;6.10;99.90
52889;DHT22;41413;52.770;6.892;2023-12-20T06:00:23;6.20;99.90
52889;DHT22;41413;52.770;6.892;2023-12-20T06:02:51;6.20;99.90
52889;DHT22;41413;52.770;6.892;2023-12-20T06:05:18;6.10;99.90
52889;DHT22;41413;52.770;6.892;2023-12-20T06:07:45;6.20;99.90
52889;DHT22;41413;52.770;6.892;2023-12-20T06:10:15;6.30;99.90
52889;DHT22;41413;52.770;6.892;2023-12-20T06:12:42;6.20;99.90
52889;DHT22;41413;52.770;6.892;2023-12-20T06:15:09;6.20;99.90
52889;DHT22;41413;52.770;6.892;2023-12-20T06:17:36;6.20;99.90
52889;DHT22;41413;52.770;6.892;2023-12-20T06:20:03;6.30;99.90
52889;DHT22;41413;52.770;6.892;2023-12-20T06:22:35;6.30;99.90
52889;DHT22;41413;52.770;6.892;2023-12-20T06:25:02;6.30;99.90
52889;DHT22;41413;52.770;6.892;2023-12-20T06:27:29;6.30;99.90
52889;DHT22;41413;52.770;6.892;2023-12-20T06:29:57;6.30;99.90
52889;DHT22;41413;52.770;6.892;2023-12-20T06:32:24;6.40;99.90
52889;DHT22;41413;52.770;6.892;2023-12-20T06:34:50;6.40;99.90
52889;DHT22;41413;52.770;6.892;2023-12-20T06:37:17;6.40;99.90
52889;DHT22;41413;52.770;6.892;2023-12-20T06:39:44;6.40;99.90
52889;DHT22;41413;52.770;6.892;2023-12-20T06:42:12;6.40;99.90
52889;DHT22;41413;52.770;6.892;2023-12-20T06:44:39;6.40;99.90
52889;DHT22;41413;52.770;6.892;2023-12-20T06:47:07;6.50;99.90
52889;DHT22;41413;52.770;6.892;2023-12-20T06:49:34;6.50;99.90
52889;DHT22;41413;52.770;6.892;2023-12-20T06:52:01;6.50;99.90
52889;DHT22;41413;52.770;6.892;2023-12-20T06:54:28;6.50;99.90
52889;DHT22;41413;52.770;6.892;2023-12-20T06:56:55;6.50;99.90
52889;DHT22;41413;52.770;6.892;2023-12-20T06:59:22;6.50;99.90
52889;DHT22;41413;52.770;6.892;2023-12-20T07:01:49;6.50;99.90
52889;DHT22;41413;52.770;6.892;2023-12-20T07:04:17;6.50;99.90
52889;DHT22;41413;52.770;6.892;2023-12-20T07:06:49;6.50;99.90
52889;DHT22;41413;52.770;6.892;2023-12-20T07:09:18;6.50;99.90
52889;DHT22;41413;52.770;6.892;2023-12-20T07:11:45;6.50;99.90
52889;DHT22;41413;52.770;6.892;2023-12-20T07:14:12;6.50;99.90
52889;DHT22;41413;52.770;6.892;2023-12-20T07:16:39;6.50;99.90
52889;DHT22;41413;52.770;6.892;2023-12-20T07:19:06;6.50;99.90
52889;DHT22;41413;52.770;6.892;2023-12-20T07:21:33;6.50;99.90
52889;DHT22;41413;52.770;6.892;2023-12-20T07:23:59;6.50;99.90
52889;DHT22;41413;52.770;6.892;2023-12-20T07:26:26;6.50;99.90
52889;DHT22;41413;52.770;6.892;2023-12-20T07:28:53;6.50;99.90
52889;DHT22;41413;52.770;6.892;2023-12-20T07:31:20;6.60;99.90
52889;DHT22;41413;52.770;6.892;2023-12-20T07:33:46;6.60;99.90
52889;DHT22;41413;52.770;6.892;2023-12-20T07:36:19;6.70;99.90
52889;DHT22;41413;52.770;6.892;2023-12-20T07:38:46;6.60;99.90
52889;DHT22;41413;52.770;6.892;2023-12-20T07:41:13;6.70;99.90
52889;DHT22;41413;52.770;6.892;2023-12-20T07:43:39;6.70;99.90
52889;DHT22;41413;52.770;6.892;2023-12-20T07:46:07;6.70;99.90
52889;DHT22;41413;52.770;6.892;2023-12-20T07:48:35;6.70;99.90
52889;DHT22;41413;52.770;6.892;2023-12-20T07:51:03;6.70;99.90
52889;DHT22;41413;52.770;6.892;2023-12-20T07:53:30;6.70;99.90
52889;DHT22;41413;52.770;6.892;2023-12-20T07:55:56;6.70;99.90
52889;DHT22;41413;52.770;6.892;2023-12-20T07:58:23;6.70;99.90
52889;DHT22;41413;52.770;6.892;2023-12-20T08:01:06;6.70;99.90
52889;DHT22;41413;52.770;6.892;2023-12-20T08:03:33;6.70;99.90
52889;DHT22;41413;52.770;6.892;2023-12-20T08:06:00;6.70;99.90
52889;DHT22;41413;52.770;6.892;2023-12-20T08:08:27;6.70;99.90
52889;DHT22;41413;52.770;6.892;2023-12-20T08:10:54;6.70;99.90
52889;DHT22;41413;52.770;6.892;2023-12-20T08:13:21;6.80;99.90
52889;DHT22;41413;52.770;6.892;2023-12-20T08:15:53;6.80;99.90
52889;DHT22;41413;52.770;6.892;2023-12-20T08:18:20;6.80;99.90
52889;DHT22;41413;52.770;6.892;2023-12-20T08:20:47;6.70;99.90
52889;DHT22;41413;52.770;6.892;2023-12-20T08:23:15;6.70;99.90
52889;DHT22;41413;52.770;6.892;2023-12-20T08:25:42;6.80;99.90
52889;DHT22;41413;52.770;6.892;2023-12-20T08:28:08;6.80;99.90
52889;DHT22;41413;52.770;6.892;2023-12-20T08:30:35;6.90;99.90
52889;DHT22;41413;52.770;6.892;2023-12-20T08:33:02;6.80;99.90
52889;DHT22;41413;52.770;6.892;2023-12-20T08:35:30;6.90;99.90
52889;DHT22;41413;52.770;6.892;2023-12-20T08:37:56;6.90;99.90
52889;DHT22;41413;52.770;6.892;2023-12-20T08:40:23;7.00;99.90
52889;DHT22;41413;52.770;6.892;2023-12-20T08:42:50;6.90;99.90
52889;DHT22;41413;52.770;6.892;2023-12-20T08:45:17;7.00;99.90
52889;DHT22;41413;52.770;6.892;2023-12-20T08:47:43;7.00;99.90
52889;DHT22;41413;52.770;6.892;2023-12-20T08:50:12;7.00;99.90
52889;DHT22;41413;52.770;6.892;2023-12-20T08:52:39;7.10;99.90
52889;DHT22;41413;52.770;6.892;2023-12-20T08:55:06;7.10;99.90
52889;DHT22;41413;52.770;6.892;2023-12-20T08:57:33;7.10;99.90
52889;DHT22;41413;52.770;6.892;2023-12-20T09:00:00;7.20;99.90
52889;DHT22;41413;52.770;6.892;2023-12-20T09:02:27;7.20;99.90
52889;DHT22;41413;52.770;6.892;2023-12-20T09:04:53;7.30;99.90
52889;DHT22;41413;52.770;6.892;2023-12-20T09:07:22;7.30;99.90
52889;DHT22;41413;52.770;6.892;2023-12-20T09:09:49;7.30;99.90
52889;DHT22;41413;52.770;6.892;2023-12-20T09:12:20;7.30;99.90
52889;DHT22;41413;52.770;6.892;2023-12-20T09:14:48;7.30;99.90
52889;DHT22;41413;52.770;6.892;2023-12-20T09:17:15;7.30;99.90
52889;DHT22;41413;52.770;6.892;2023-12-20T09:19:43;7.40;99.90
52889;DHT22;41413;52.770;6.892;2023-12-20T09:22:13;7.40;99.90
52889;DHT22;41413;52.770;6.892;2023-12-20T09:24:40;7.50;99.90
52889;DHT22;41413;52.770;6.892;2023-12-20T09:27:06;7.50;99.90
52889;DHT22;41413;52.770;6.892;2023-12-20T09:29:33;7.60;99.90
52889;DHT22;41413;52.770;6.892;2023-12-20T09:32:00;7.60;99.90
52889;DHT22;41413;52.770;6.892;2023-12-20T09:34:27;7.70;99.90
52889;DHT22;41413;52.770;6.892;2023-12-20T09:36:54;7.60;99.90
52889;DHT22;41413;52.770;6.892;2023-12-20T09:39:21;7.60;99.90
52889;DHT22;41413;52.770;6.892;2023-12-20T09:42:02;7.60;99.90
52889;DHT22;41413;52.770;6.892;2023-12-20T09:44:30;7.60;99.90
52889;DHT22;41413;52.770;6.892;2023-12-20T09:46:57;7.70;99.90
52889;DHT22;41413;52.770;6.892;2023-12-20T09:49:25;7.70;99.90
52889;DHT22;41413;52.770;6.892;2023-12-20T09:51:54;7.90;99.90
52889;DHT22;41413;52.770;6.892;2023-12-20T09:54:21;8.10;99.90
52889;DHT22;41413;52.770;6.892;2023-12-20T09:56:49;8.40;99.90
52889;DHT22;41413;52.770;6.892;2023-12-20T09:59:16;8.40;99.90
52889;DHT22;41413;52.770;6.892;2023-12-20T10:01:43;8.30;99.90
52889;DHT22;41413;52.770;6.892;2023-12-20T10:04:12;8.30;99.90
52889;DHT22;41413;52.770;6.892;2023-12-20T10:06:55;8.30;99.90
52889;DHT22;41413;52.770;6.892;2023-12-20T10:09:24;8.30;99.90
52889;DHT22;41413;52.770;6.892;2023-12-20T10:11:54;8.30;99.90
52889;DHT22;41413;52.770;6.892;2023-12-20T10:14:21;8.10;99.90
52889;DHT22;41413;52.770;6.892;2023-12-20T10:16:50;7.90;99.90
52889;DHT22;41413;52.770;6.892;2023-12-20T10:19:17;7.70;99.90
52889;DHT22;41413;52.770;6.892;2023-12-20T10:21:45;7.50;99.90
52889;DHT22;41413;52.770;6.892;2023-12-20T10:24:17;7.30;99.90
52889;DHT22;41413;52.770;6.892;2023-12-20T10:26:44;7.10;99.90
52889;DHT22;41413;52.770;6.892;2023-12-20T10:29:11;7.00;99.90
52889;DHT22;41413;52.770;6.892;2023-12-20T10:31:37;7.00;99.90
52889;DHT22;41413;52.770;6.892;2023-12-20T10:34:09;6.80;99.90
52889;DHT22;41413;52.770;6.892;2023-12-20T10:36:36;6.80;99.90
52889;DHT22;41413;52.770;6.892;2023-12-20T10:39:03;6.70;99.90
52889;DHT22;41413;52.770;6.892;2023-12-20T10:41:32;6.70;99.90
52889;DHT22;41413;52.770;6.892;2023-12-20T10:44:00;6.70;99.90
52889;DHT22;41413;52.770;6.892;2023-12-20T10:46:28;6.60;99.90
52889;DHT22;41413;52.770;6.892;2023-12-20T10:48:56;6.60;99.90
52889;DHT22;41413;52.770;6.892;2023-12-20T10:51:24;6.60;99.90
52889;DHT22;41413;52.770;6.892;2023-12-20T10:53:56;6.60;99.90
52889;DHT22;41413;52.770;6.892;2023-12-20T10:56:23;6.60;99.90
52889;DHT22;41413;52.770;6.892;2023-12-20T10:58:50;6.60;99.90
52889;DHT22;41413;52.770;6.892;2023-12-20T11:01:18;6.60;99.90
52889;DHT22;41413;52.770;6.892;2023-12-20T11:03:53;6.70;99.90
52889;DHT22;41413;52.770;6.892;2023-12-20T11:06:33;6.70;99.90
52889;DHT22;41413;52.770;6.892;2023-12-20T11:09:22;6.80;99.90
52889;DHT22;41413;52.770;6.892;2023-12-20T11:14:27;6.90;99.90
52889;DHT22;41413;52.770;6.892;2023-12-20T11:17:09;6.90;99.90
52889;DHT22;41413;52.770;6.892;2023-12-20T11:19:37;6.90;99.90
52889;DHT22;41413;52.770;6.892;2023-12-20T11:22:04;6.90;99.90
52889;DHT22;41413;52.770;6.892;2023-12-20T11:24:32;6.80;99.90
52889;DHT22;41413;52.770;6.892;2023-12-20T11:27:00;6.80;99.90
52889;DHT22;41413;52.770;6.892;2023-12-20T11:32:02;7.00;99.90
52889;DHT22;41413;52.770;6.892;2023-12-20T11:34:33;7.00;99.90
52889;DHT22;41413;52.770;6.892;2023-12-20T11:37:03;6.90;99.90
52889;DHT22;41413;52.770;6.892;2023-12-20T11:39:30;7.00;99.90
52889;DHT22;41413;52.770;6.892;2023-12-20T11:42:04;7.10;99.90
52889;DHT22;41413;52.770;6.892;2023-12-20T11:44:31;7.10;99.90
52889;DHT22;41413;52.770;6.892;2023-12-20T11:47:00;7.20;99.90
52889;DHT22;41413;52.770;6.892;2023-12-20T11:49:27;7.20;99.90
52889;DHT22;41413;52.770;6.892;2023-12-20T11:51:56;7.30;99.90
52889;DHT22;41413;52.770;6.892;2023-12-20T11:54:23;7.40;99.90
52889;DHT22;41413;52.770;6.892;2023-12-20T11:56:49;7.50;99.90
52889;DHT22;41413;52.770;6.892;2023-12-20T11:59:16;7.50;99.90
52889;DHT22;41413;52.770;6.892;2023-12-20T12:01:50;7.40;99.90
52889;DHT22;41413;52.770;6.892;2023-12-20T12:04:18;7.40;99.90
52889;DHT22;41413;52.770;6.892;2023-12-20T12:06:45;7.40;99.90
52889;DHT22;41413;52.770;6.892;2023-12-20T12:09:13;7.40;99.90
52889;DHT22;41413;52.770;6.892;2023-12-20T12:11:39;7.30;99.90
52889;DHT22;41413;52.770;6.892;2023-12-20T12:14:07;7.30;99.90
52889;DHT22;41413;52.770;6.892;2023-12-20T12:16:34;7.30;99.90
52889;DHT22;41413;52.770;6.892;2023-12-20T12:19:01;7.30;99.90
52889;DHT22;41413;52.770;6.892;2023-12-20T12:21:28;7.40;99.90
52889;DHT22;41413;52.770;6.892;2023-12-20T12:24:09;7.40;99.90
52889;DHT22;41413;52.770;6.892;2023-12-20T12:26:36;7.40;99.90
52889;DHT22;41413;52.770;6.892;2023-12-20T12:29:07;7.30;99.90
52889;DHT22;41413;52.770;6.892;2023-12-20T12:31:34;7.30;99.90
52889;DHT22;41413;52.770;6.892;2023-12-20T12:34:01;7.40;99.90
52889;DHT22;41413;52.770;6.892;2023-12-20T12:36:29;7.40;99.90
52889;DHT22;41413;52.770;6.892;2023-12-20T12:39:02;7.50;99.90
52889;DHT22;41413;52.770;6.892;2023-12-20T12:41:30;7.40;99.90
52889;DHT22;41413;52.770;6.892;2023-12-20T12:43:56;7.30;99.90
52889;DHT22;41413;52.770;6.892;2023-12-20T12:46:30;7.30;99.90
52889;DHT22;41413;52.770;6.892;2023-12-20T12:48:57;7.20;99.90
52889;DHT22;41413;52.770;6.892;2023-12-20T12:51:24;7.20;99.90
52889;DHT22;41413;52.770;6.892;2023-12-20T12:53:51;7.20;99.90
52889;DHT22;41413;52.770;6.892;2023-12-20T12:56:18;7.20;99.90
52889;DHT22;41413;52.770;6.892;2023-12-20T12:58:45;7.10;99.90
52889;DHT22;41413;52.770;6.892;2023-12-20T13:01:11;7.10;99.90
52889;DHT22;41413;52.770;6.892;2023-12-20T13:03:38;7.20;99.90
52889;DHT22;41413;52.770;6.892;2023-12-20T13:06:05;7.20;99.90
52889;DHT22;41413;52.770;6.892;2023-12-20T13:08:32;7.20;99.90
52889;DHT22;41413;52.770;6.892;2023-12-20T13:10:59;7.20;99.90
52889;DHT22;41413;52.770;6.892;2023-12-20T13:13:27;7.10;99.90
52889;DHT22;41413;52.770;6.892;2023-12-20T13:15:55;7.10;99.90
52889;DHT22;41413;52.770;6.892;2023-12-20T13:18:22;7.00;99.90
52889;DHT22;41413;52.770;6.892;2023-12-20T13:20:49;7.00;99.90
52889;DHT22;41413;52.770;6.892;2023-12-20T13:23:16;7.10;99.90
52889;DHT22;41413;52.770;6.892;2023-12-20T13:25:45;7.00;99.90
52889;DHT22;41413;52.770;6.892;2023-12-20T13:28:14;7.00;99.90
52889;DHT22;41413;52.770;6.892;2023-12-20T13:30:41;6.90;99.90
52889;DHT22;41413;52.770;6.892;2023-12-20T13:33:08;6.80;99.90
52889;DHT22;41413;52.770;6.892;2023-12-20T13:35:35;6.70;99.90
52889;DHT22;41413;52.770;6.892;2023-12-20T13:38:02;6.70;99.90
52889;DHT22;41413;52.770;6.892;2023-12-20T13:40:29;6.60;99.90
52889;DHT22;41413;52.770;6.892;2023-12-20T13:42:56;6.60;99.90
52889;DHT22;41413;52.770;6.892;2023-12-20T13:45:23;6.60;99.90
52889;DHT22;41413;52.770;6.892;2023-12-20T13:47:51;6.70;99.90
52889;DHT22;41413;52.770;6.892;2023-12-20T13:50:18;6.70;99.90
52889;DHT22;41413;52.770;6.892;2023-12-20T13:52:45;6.50;99.90
52889;DHT22;41413;52.770;6.892;2023-12-20T13:55:13;6.50;99.90
52889;DHT22;41413;52.770;6.892;2023-12-20T13:57:40;6.60;99.90
52889;DHT22;41413;52.770;6.892;2023-12-20T14:00:21;6.50;99.90
52889;DHT22;41413;52.770;6.892;2023-12-20T14:02:48;6.50;99.90
52889;DHT22;41413;52.770;6.892;2023-12-20T14:05:16;6.40;99.90
52889;DHT22;41413;52.770;6.892;2023-12-20T14:07:50;6.40;99.90
52889;DHT22;41413;52.770;6.892;2023-12-20T14:10:17;6.40;99.90
52889;DHT22;41413;52.770;6.892;2023-12-20T14:12:44;6.30;99.90
52889;DHT22;41413;52.770;6.892;2023-12-20T14:15:11;6.30;99.90
52889;DHT22;41413;52.770;6.892;2023-12-20T14:17:40;6.30;99.90
52889;DHT22;41413;52.770;6.892;2023-12-20T14:20:09;6.30;99.90
52889;DHT22;41413;52.770;6.892;2023-12-20T14:22:36;6.20;99.90
52889;DHT22;41413;52.770;6.892;2023-12-20T14:25:05;6.10;99.90
52889;DHT22;41413;52.770;6.892;2023-12-20T14:27:33;6.00;99.90
52889;DHT22;41413;52.770;6.892;2023-12-20T14:30:00;6.10;99.90
52889;DHT22;41413;52.770;6.892;2023-12-20T14:32:27;6.00;99.90
52889;DHT22;41413;52.770;6.892;2023-12-20T14:34:54;6.10;99.90
52889;DHT22;41413;52.770;6.892;2023-12-20T14:37:22;6.10;99.90
52889;DHT22;41413;52.770;6.892;2023-12-20T14:39:49;6.00;99.90
52889;DHT22;41413;52.770;6.892;2023-12-20T14:42:16;6.00;99.90
52889;DHT22;41413;52.770;6.892;2023-12-20T14:44:43;5.90;99.90
52889;DHT22;41413;52.770;6.892;2023-12-20T14:47:10;5.90;99.90
52889;DHT22;41413;52.770;6.892;2023-12-20T14:49:37;5.90;99.90
52889;DHT22;41413;52.770;6.892;2023-12-20T14:52:04;6.00;99.90
52889;DHT22;41413;52.770;6.892;2023-12-20T14:54:31;5.90;99.90
52889;DHT22;41413;52.770;6.892;2023-12-20T14:56:59;6.00;99.90
52889;DHT22;41413;52.770;6.892;2023-12-20T14:59:31;6.00;99.90
52889;DHT22;41413;52.770;6.892;2023-12-20T15:01:58;6.00;99.90
52889;DHT22;41413;52.770;6.892;2023-12-20T15:04:25;6.00;99.90
52889;DHT22;41413;52.770;6.892;2023-12-20T15:06:55;6.00;99.90
52889;DHT22;41413;52.770;6.892;2023-12-20T15:09:22;5.90;99.90
52889;DHT22;41413;52.770;6.892;2023-12-20T15:11:49;5.90;99.90
52889;DHT22;41413;52.770;6.892;2023-12-20T15:14:16;5.90;99.90
52889;DHT22;41413;52.770;6.892;2023-12-20T15:16:46;5.90;99.90
52889;DHT22;41413;52.770;6.892;2023-12-20T15:19:16;5.90;99.90
52889;DHT22;41413;52.770;6.892;2023-12-20T15:21:43;5.90;99.90
52889;DHT22;41413;52.770;6.892;2023-12-20T15:24:13;5.90;99.90
52889;DHT22;41413;52.770;6.892;2023-12-20T15:26:46;6.00;99.90
52889;DHT22;41413;52.770;6.892;2023-12-20T15:29:13;6.00;99.90
52889;DHT22;41413;52.770;6.892;2023-12-20T15:31:47;6.10;99.90
52889;DHT22;41413;52.770;6.892;2023-12-20T15:34:15;6.10;99.90
52889;DHT22;41413;52.770;6.892;2023-12-20T15:36:42;6.10;99.90
52889;DHT22;41413;52.770;6.892;2023-12-20T15:39:09;6.20;99.90
52889;DHT22;41413;52.770;6.892;2023-12-20T15:41:36;6.20;99.90
52889;DHT22;41413;52.770;6.892;2023-12-20T15:44:03;6.20;99.90
52889;DHT22;41413;52.770;6.892;2023-12-20T15:46:30;6.30;99.90
52889;DHT22;41413;52.770;6.892;2023-12-20T15:48:56;6.30;99.90
52889;DHT22;41413;52.770;6.892;2023-12-20T15:51:23;6.30;99.90
52889;DHT22;41413;52.770;6.892;2023-12-20T15:53:51;6.40;99.90